Time;durP1;ratioP1;P1;durP2;ratioP2;P2;SDS_P1;SDS_P2;PMS_P1;PMS_P2;Temp;Humidity;BMP_temperature;BMP_pressure;BME280_temperature;BME280_humidity;BME280_pressure;Samples;Min_cycle;Max_cycle;Signal;HPM_P1;HPM_P2
2023/12/27 05:48:11;;;;;;;151.10;69.38;;;;;;;4.73;87.76;100216.91;5273527;24;20047;-83
2023/12/27 05:50:57;;;;;;;218.20;91.63;;;;;;;4.73;87.64;100221.34;4793013;29;20533;-83
2023/12/27 05:53:43;;;;;;;225.10;94.97;;;;;;;4.68;87.64;100221.84;4806433;29;20051;-82
2023/12/27 05:56:28;;;;;;;294.08;130.35;;;;;;;4.67;87.64;100225.50;4793024;29;20058;-82
2023/12/27 05:59:14;;;;;;;268.73;122.63;;;;;;;4.66;87.91;100220.38;4806674;29;20522;-87
2023/12/27 06:02:00;;;;;;;241.63;117.47;;;;;;;4.58;88.00;100219.41;4786373;29;20050;-82
2023/12/27 06:04:45;;;;;;;257.83;124.20;;;;;;;4.57;88.08;100214.28;4806516;29;20051;-86
2023/12/27 06:07:31;;;;;;;217.27;102.50;;;;;;;4.51;88.43;100218.44;4798112;29;20055;-86
2023/12/27 06:10:18;;;;;;;222.40;103.57;;;;;;;4.50;88.11;100226.47;4798935;29;20055;-86
2023/12/27 06:13:03;;;;;;;196.50;97.53;;;;;;;4.44;87.85;100227.97;4812082;29;20440;-82
2023/12/27 06:15:48;;;;;;;187.93;97.25;;;;;;;4.35;88.23;100232.41;4806473;29;20047;-86
2023/12/27 06:18:34;;;;;;;176.35;88.10;;;;;;;4.27;88.79;100252.66;4807002;29;20486;-81
2023/12/27 06:21:20;;;;;;;169.85;79.97;;;;;;;4.20;88.20;100251.63;4812014;29;20051;-82
2023/12/27 06:24:06;;;;;;;139.38;71.45;;;;;;;4.13;88.10;100256.72;4808947;29;20058;-82
2023/12/27 06:26:51;;;;;;;140.60;69.20;;;;;;;4.05;88.78;100262.81;4810685;29;20046;-81
2023/12/27 06:29:37;;;;;;;137.32;67.90;;;;;;;4.03;88.59;100261.31;4809487;29;20054;-88
2023/12/27 06:32:22;;;;;;;152.77;76.95;;;;;;;4.03;88.88;100261.31;4790213;29;20050;-84
2023/12/27 06:35:08;;;;;;;148.10;69.25;;;;;;;4.04;89.02;100263.81;4815307;29;20047;-87
2023/12/27 06:37:53;;;;;;;141.85;67.30;;;;;;;4.13;89.12;100262.81;4797565;29;20053;-87
2023/12/27 06:40:38;;;;;;;141.30;66.35;;;;;;;4.24;88.36;100268.75;4789797;29;20047;-83
2023/12/27 06:43:24;;;;;;;145.52;68.63;;;;;;;4.32;88.32;100266.13;4815195;29;20502;-83
2023/12/27 06:46:10;;;;;;;148.23;74.78;;;;;;;4.40;88.22;100274.84;4810307;29;20413;-84
2023/12/27 06:48:55;;;;;;;153.40;73.25;;;;;;;4.43;88.18;100278.97;4813041;29;20477;-82
2023/12/27 06:51:41;;;;;;;156.68;80.95;;;;;;;4.50;87.57;100279.94;4819290;29;20058;-86
2023/12/27 06:54:27;;;;;;;150.55;78.28;;;;;;;4.62;87.40;100288.34;4806326;29;20061;-81
2023/12/27 06:57:12;;;;;;;156.15;77.40;;;;;;;4.62;87.58;100285.72;4814675;29;20053;-82
2023/12/27 06:59:58;;;;;;;152.40;75.53;;;;;;;4.67;87.68;100291.31;4813987;29;20485;-85
2023/12/27 07:02:43;;;;;;;159.75;87.53;;;;;;;4.75;87.46;100299.19;4819167;29;20043;-86
2023/12/27 07:05:29;;;;;;;156.65;78.95;;;;;;;4.81;87.10;100302.97;4800281;29;20546;-86
2023/12/27 07:08:14;;;;;;;136.18;66.07;;;;;;;4.91;86.70;100318.63;4791436;29;20051;-86
2023/12/27 07:10:59;;;;;;;128.43;64.32;;;;;;;5.07;86.33;100329.13;4804765;29;20402;-86
2023/12/27 07:13:49;;;;;;;136.15;66.50;;;;;;;5.18;86.71;100328.78;4795176;29;20118;-86
2023/12/27 07:16:34;;;;;;;142.85;67.25;;;;;;;5.33;85.97;100334.22;4805654;29;20102;-83
2023/12/27 07:19:20;;;;;;;136.95;68.18;;;;;;;5.37;85.74;100335.50;4814506;29;20398;-82
2023/12/27 07:22:06;;;;;;;136.57;71.70;;;;;;;5.46;85.82;100333.69;4795489;29;20513;-82
2023/12/27 07:24:51;;;;;;;145.75;69.30;;;;;;;5.55;85.48;100338.75;4796854;29;20054;-83
2023/12/27 07:27:36;;;;;;;130.60;68.10;;;;;;;5.74;84.78;100344.63;4797438;29;20154;-83
2023/12/27 07:30:22;;;;;;;125.18;63.55;;;;;;;5.85;84.25;100349.50;4802598;29;20059;-87
2023/12/27 07:33:08;;;;;;;143.02;74.25;;;;;;;5.89;84.21;100356.13;4788708;29;20050;-87
2023/12/27 07:35:54;;;;;;;127.97;64.82;;;;;;;6.12;83.89;100365.94;4788763;29;20039;-87
2023/12/27 07:38:39;;;;;;;111.15;55.47;;;;;;;6.23;83.63;100381.38;4790033;29;20043;-84
2023/12/27 07:41:25;;;;;;;103.25;48.20;;;;;;;6.35;81.51;100379.16;4796126;29;20050;-87
2023/12/27 07:44:10;;;;;;;102.60;46.35;;;;;;;6.47;81.48;100372.50;4789889;29;20061;-83
2023/12/27 07:46:56;;;;;;;91.00;41.08;;;;;;;6.51;80.75;100373.78;4810641;29;20113;-84
2023/12/27 07:49:43;;;;;;;85.25;39.83;;;;;;;6.59;80.17;100373.72;4784903;29;20062;-84
2023/12/27 07:52:28;;;;;;;76.28;40.05;;;;;;;6.68;79.47;100377.16;4810127;29;20061;-84
2023/12/27 07:55:14;;;;;;;82.38;41.40;;;;;;;6.80;79.02;100369.59;4811052;29;20073;-83
2023/12/27 07:57:59;;;;;;;124.18;51.22;;;;;;;6.83;79.08;100361.31;4823041;29;20054;-83
2023/12/27 08:00:45;;;;;;;122.90;57.15;;;;;;;6.97;78.94;100370.31;4830978;29;20126;-88
2023/12/27 08:03:31;;;;;;;117.15;55.15;;;;;;;6.99;78.63;100384.16;4807726;29;20034;-86
2023/12/27 08:06:16;;;;;;;111.95;55.63;;;;;;;7.01;78.59;100387.47;4784064;29;20077;-86
2023/12/27 08:09:01;;;;;;;123.78;63.63;;;;;;;7.02;78.69;100395.22;4779660;29;20520;-83
2023/12/27 08:11:47;;;;;;;121.15;62.15;;;;;;;7.04;78.92;100408.25;4808931;29;20047;-86
2023/12/27 08:14:32;;;;;;;143.30;71.82;;;;;;;7.05;78.59;100415.16;4800664;29;20051;-86
2023/12/27 08:17:18;;;;;;;132.48;68.28;;;;;;;7.00;78.66;100417.53;4814397;29;20051;-83
2023/12/27 08:20:04;;;;;;;116.47;58.10;;;;;;;6.99;78.87;100424.66;4815465;29;20067;-86
2023/12/27 08:22:51;;;;;;;122.03;60.42;;;;;;;6.91;79.31;100427.34;4794690;29;20065;-86
2023/12/27 08:25:36;;;;;;;98.43;51.03;;;;;;;6.88;79.53;100436.44;4775311;29;20055;-87
2023/12/27 08:28:21;;;;;;;98.60;50.70;;;;;;;6.88;79.88;100420.59;4800798;29;20058;-87
2023/12/27 08:31:07;;;;;;;113.05;57.20;;;;;;;6.87;79.87;100413.66;4794313;29;20054;-86
2023/12/27 08:33:53;;;;;;;110.95;54.13;;;;;;;6.89;80.38;100431.97;4814742;29;20050;-83
2023/12/27 08:36:40;;;;;;;112.18;57.85;;;;;;;7.02;81.15;100426.09;4802707;29;20057;-83
2023/12/27 08:39:26;;;;;;;113.60;56.38;;;;;;;7.28;79.58;100431.03;4808072;29;20558;-86
2023/12/27 08:42:11;;;;;;;110.28;57.28;;;;;;;7.52;79.13;100432.59;4795502;29;20043;-87
2023/12/27 08:44:57;;;;;;;152.75;70.10;;;;;;;7.75;78.49;100438.66;4801174;29;20066;-84
2023/12/27 08:47:43;;;;;;;100.53;52.05;;;;;;;7.61;77.97;100437.63;4807588;29;20490;-82
2023/12/27 08:50:29;;;;;;;102.50;53.22;;;;;;;7.81;77.78;100442.41;4811064;29;20043;-79
2023/12/27 08:53:16;;;;;;;94.60;48.85;;;;;;;7.99;77.61;100445.53;4815023;29;20075;-75
2023/12/27 08:56:01;;;;;;;82.90;42.70;;;;;;;8.12;75.29;100442.22;4813429;29;20050;-77
2023/12/27 08:58:47;;;;;;;83.88;46.80;;;;;;;8.22;76.36;100434.81;4824161;29;20481;-78
2023/12/27 09:01:32;;;;;;;93.95;50.55;;;;;;;8.26;75.53;100435.28;4828104;29;20058;-78
2023/12/27 09:04:20;;;;;;;86.57;46.63;;;;;;;8.38;75.33;100446.22;4810262;29;20081;-78
2023/12/27 09:07:07;;;;;;;101.97;51.38;;;;;;;8.51;74.37;100449.88;4806977;29;20406;-77
2023/12/27 09:09:52;;;;;;;110.55;54.78;;;;;;;8.58;74.13;100463.19;4806451;29;20509;-78
2023/12/27 09:12:41;;;;;;;115.85;59.28;;;;;;;8.61;74.53;100464.66;4806642;29;20059;-78
2023/12/27 09:15:27;;;;;;;119.18;58.75;;;;;;;8.57;75.05;100462.38;4806819;29;20054;-80
2023/12/27 09:18:12;;;;;;;119.97;57.97;;;;;;;8.71;74.75;100463.34;4807006;29;20051;-79
2023/12/27 09:20:57;;;;;;;111.57;56.97;;;;;;;8.72;74.70;100470.28;4813057;29;20051;-78
2023/12/27 09:23:43;;;;;;;112.45;56.05;;;;;;;8.79;74.18;100463.22;4806816;29;20051;-77
2023/12/27 09:26:29;;;;;;;122.55;60.65;;;;;;;8.87;74.01;100464.09;4806671;29;20122;-78
2023/12/27 09:29:15;;;;;;;107.22;52.08;;;;;;;8.79;74.04;100457.09;4812643;29;20401;-80
2023/12/27 09:32:01;;;;;;;102.38;50.22;;;;;;;8.90;74.38;100448.69;4806606;29;20051;-83
2023/12/27 09:34:47;;;;;;;91.50;46.45;;;;;;;9.05;73.23;100451.25;4806496;29;20043;-84
2023/12/27 09:37:33;;;;;;;101.60;48.55;;;;;;;8.99;73.96;100457.31;4806683;29;20054;-83
2023/12/27 09:40:20;;;;;;;93.00;44.03;;;;;;;9.00;73.80;100448.34;4806388;29;20050;-83
2023/12/27 09:43:07;;;;;;;109.63;54.20;;;;;;;8.99;73.91;100446.69;4806674;29;20390;-82
2023/12/27 09:45:53;;;;;;;93.78;47.85;;;;;;;8.99;74.18;100439.59;4805354;29;20067;-86
2023/12/27 09:48:40;;;;;;;84.10;42.53;;;;;;;9.09;73.41;100447.22;4793184;29;20054;-86
2023/12/27 09:51:26;;;;;;;86.22;44.00;;;;;;;9.02;74.18;100439.22;4793462;29;20127;-86
2023/12/27 09:54:13;;;;;;;90.68;46.00;;;;;;;8.77;74.49;100437.91;4805666;29;20062;-85
2023/12/27 09:56:59;;;;;;;95.40;47.38;;;;;;;8.95;73.45;100433.00;4806737;29;20390;-84
2023/12/27 09:59:46;;;;;;;112.80;48.97;;;;;;;9.06;72.80;100439.66;4810522;29;20081;-77
2023/12/27 10:02:34;;;;;;;111.72;50.65;;;;;;;9.13;72.74;100445.81;4799660;29;20400;-82
2023/12/27 10:05:22;;;;;;;133.85;60.78;;;;;;;9.22;72.37;100442.03;4810356;29;20057;-83
2023/12/27 10:08:07;;;;;;;109.13;47.50;;;;;;;9.21;72.73;100440.41;4810946;29;20047;-84
2023/12/27 10:10:53;;;;;;;79.28;41.60;;;;;;;9.19;73.33;100425.69;4810459;29;20055;-84
2023/12/27 10:13:41;;;;;;;92.30;45.03;;;;;;;9.16;72.54;100432.19;4802270;29;20062;-79
2023/12/27 10:16:26;;;;;;;79.70;39.90;;;;;;;9.18;73.25;100439.94;4802412;29;20058;-83
2023/12/27 10:19:44;;;;;;;77.25;39.13;;;;;;;9.30;73.08;100434.94;4809884;29;20065;-82
2023/12/27 10:22:31;;;;;;;77.88;40.35;;;;;;;9.46;72.77;100427.53;4808741;29;20050;-79
2023/12/27 10:25:18;;;;;;;66.85;36.30;;;;;;;9.56;71.94;100435.16;4810805;29;20069;-80
2023/12/27 10:28:05;;;;;;;71.55;38.22;;;;;;;9.68;70.93;100433.63;4809500;29;20433;-80
2023/12/27 10:30:53;;;;;;;94.43;44.20;;;;;;;9.77;71.61;100434.25;4810196;29;20054;-84
2023/12/27 10:33:43;;;;;;;67.63;35.50;;;;;;;9.84;71.57;100444.91;4797066;29;20126;-80
2023/12/27 10:36:30;;;;;;;70.07;35.08;;;;;;;9.86;70.86;100448.19;4808770;29;20061;-82
2023/12/27 10:39:19;;;;;;;75.57;36.33;;;;;;;9.89;71.18;100448.63;4809610;29;20057;-83
2023/12/27 10:42:07;;;;;;;76.50;37.58;;;;;;;10.02;70.89;100442.56;4810088;29;20062;-82
2023/12/27 10:44:52;;;;;;;66.60;31.98;;;;;;;10.11;69.76;100437.94;4809745;29;20051;-82
2023/12/27 10:47:39;;;;;;;65.13;35.63;;;;;;;10.19;69.94;100437.78;4808970;29;20070;-78
2023/12/27 10:50:29;;;;;;;63.88;36.63;;;;;;;10.20;69.51;100437.56;4808330;29;20051;-82
2023/12/27 10:53:19;;;;;;;74.93;38.55;;;;;;;10.24;69.40;100424.69;4808396;29;20051;-78
2023/12/27 10:56:06;;;;;;;79.65;42.05;;;;;;;10.23;69.81;100427.56;4809582;29;20069;-81
2023/12/27 10:58:52;;;;;;;74.38;38.30;;;;;;;10.37;69.78;100429.28;4808365;29;20054;-83
2023/12/27 11:01:43;;;;;;;65.05;34.85;;;;;;;10.47;68.65;100437.72;4814927;29;20077;-82
2023/12/27 11:04:28;;;;;;;74.25;39.38;;;;;;;10.55;68.79;100426.88;4809094;29;20398;-78
2023/12/27 11:07:15;;;;;;;62.00;34.60;;;;;;;10.58;69.26;100423.00;4808077;29;20498;-82
2023/12/27 11:10:01;;;;;;;55.75;31.77;;;;;;;10.48;69.33;100420.75;4808291;29;20045;-81
2023/12/27 11:12:50;;;;;;;64.45;32.83;;;;;;;10.42;69.47;100413.56;4809119;29;20050;-81
2023/12/27 11:15:37;;;;;;;64.88;31.77;;;;;;;10.23;70.17;100415.09;4808900;29;20053;-83
2023/12/27 11:18:25;;;;;;;66.57;34.92;;;;;;;10.23;70.43;100414.28;4808724;29;20050;-83
2023/12/27 11:21:11;;;;;;;60.75;27.98;;;;;;;10.18;69.97;100415.69;4814136;29;20053;-83
2023/12/27 11:23:56;;;;;;;53.35;29.15;;;;;;;10.36;69.07;100414.34;4814859;29;20054;-82
2023/12/27 11:26:42;;;;;;;51.90;30.02;;;;;;;10.46;69.10;100412.13;4809497;29;20065;-79
2023/12/27 11:29:29;;;;;;;56.85;27.13;;;;;;;10.47;68.88;100413.78;4810613;29;20528;-79
2023/12/27 11:32:15;;;;;;;50.60;27.00;;;;;;;10.47;68.93;100412.97;4785807;29;20058;-79
2023/12/27 11:35:01;;;;;;;50.33;25.75;;;;;;;10.56;69.38;100415.25;4808537;29;20066;-81
2023/12/27 11:37:47;;;;;;;47.00;25.90;;;;;;;10.72;67.99;100419.38;4808524;29;20043;-79
2023/12/27 11:40:35;;;;;;;51.22;23.25;;;;;;;10.79;68.53;100422.06;4807782;29;20413;-78
2023/12/27 11:43:26;;;;;;;40.75;19.17;;;;;;;10.78;66.94;100420.38;4810363;29;20070;-78
2023/12/27 11:46:13;;;;;;;39.15;19.27;;;;;;;10.70;67.46;100423.25;4811255;29;20054;-78
2023/12/27 11:48:59;;;;;;;41.42;20.25;;;;;;;10.75;67.13;100411.00;4811739;29;20490;-78
2023/12/27 11:51:45;;;;;;;35.35;20.15;;;;;;;10.92;66.59;100413.28;4801939;29;20047;-78
2023/12/27 11:54:31;;;;;;;38.53;22.23;;;;;;;11.05;66.29;100415.94;4815468;29;20069;-80
2023/12/27 11:57:16;;;;;;;39.70;22.05;;;;;;;11.34;66.78;100414.72;4808967;29;20047;-81
2023/12/27 12:00:04;;;;;;;39.17;22.67;;;;;;;11.41;64.79;100418.22;4795037;29;20066;-82
2023/12/27 12:03:00;;;;;;;34.80;20.90;;;;;;;11.47;64.55;100417.38;4808194;29;20039;-82
2023/12/27 12:06:10;;;;;;;43.72;21.95;;;;;;;11.55;64.90;100408.34;4808343;29;20070;-81
2023/12/27 12:08:58;;;;;;;50.38;27.25;;;;;;;11.63;63.19;100402.00;4814051;29;20051;-84
2023/12/27 12:11:46;;;;;;;40.85;23.95;;;;;;;11.66;62.88;100393.56;4794788;29;20054;-86
2023/12/27 12:14:32;;;;;;;49.55;29.42;;;;;;;11.56;65.33;100386.00;4808022;29;20111;-79
2023/12/27 12:17:20;;;;;;;33.80;17.75;;;;;;;11.33;63.95;100378.47;4807177;29;20054;-83
2023/12/27 12:20:07;;;;;;;29.25;15.85;;;;;;;11.38;62.59;100383.19;4806338;29;20073;-83
2023/12/27 12:22:53;;;;;;;23.55;13.38;;;;;;;11.29;60.69;100379.94;4807590;29;20054;-83
2023/12/27 12:25:41;;;;;;;18.35;9.93;;;;;;;11.32;59.86;100380.34;4808173;29;20050;-81
2023/12/27 12:28:28;;;;;;;22.27;10.80;;;;;;;11.27;59.97;100371.31;4808153;29;20073;-80
2023/12/27 12:31:13;;;;;;;23.33;11.85;;;;;;;11.39;58.34;100371.53;4807968;29;20047;-83
2023/12/27 12:34:00;;;;;;;17.90;9.68;;;;;;;11.33;58.30;100370.50;4809147;29;20065;-81
2023/12/27 12:36:46;;;;;;;21.05;10.85;;;;;;;11.43;57.71;100370.06;4808615;29;20054;-80
2023/12/27 12:39:32;;;;;;;22.83;11.43;;;;;;;11.34;56.64;100372.13;4806924;29;20061;-80
2023/12/27 12:42:18;;;;;;;24.10;11.88;;;;;;;11.33;56.30;100373.16;4807535;29;20043;-80
2023/12/27 12:45:04;;;;;;;26.13;13.68;;;;;;;11.40;56.22;100373.97;4807466;29;20058;-79
2023/12/27 12:47:50;;;;;;;21.00;11.38;;;;;;;11.48;55.69;100365.78;4807066;29;20153;-78
2023/12/27 12:50:36;;;;;;;20.52;11.63;;;;;;;11.44;56.26;100372.53;4793718;29;20043;-81
2023/12/27 12:53:23;;;;;;;16.70;9.38;;;;;;;11.44;55.42;100363.72;4807254;29;20405;-81
2023/12/27 12:56:09;;;;;;;19.25;10.40;;;;;;;11.43;55.47;100357.56;4813076;29;20053;-82
2023/12/27 12:58:54;;;;;;;24.65;12.90;;;;;;;11.48;56.38;100357.78;4793795;29;20130;-81
2023/12/27 13:01:40;;;;;;;18.15;9.23;;;;;;;11.43;55.61;100354.91;4806115;29;20047;-80
2023/12/27 13:04:25;;;;;;;15.32;8.90;;;;;;;11.46;54.51;100351.03;4809200;29;20066;-78
2023/12/27 13:07:11;;;;;;;17.77;9.68;;;;;;;11.49;55.39;100356.75;4810145;29;20066;-79
2023/12/27 13:10:02;;;;;;;19.35;9.05;;;;;;;11.50;55.75;100363.72;4816369;29;20410;-84
2023/12/27 13:12:47;;;;;;;14.75;7.05;;;;;;;11.51;53.80;100362.69;4810851;29;20062;-81
2023/12/27 13:15:32;;;;;;;16.05;7.63;;;;;;;11.52;53.87;100363.50;4809082;29;20053;-81
2023/12/27 13:18:18;;;;;;;8.88;4.85;;;;;;;11.52;52.54;100352.84;4809713;29;20525;-80
2023/12/27 13:21:04;;;;;;;8.65;4.57;;;;;;;11.54;53.83;100354.28;4808413;29;20071;-83
2023/12/27 13:23:49;;;;;;;13.38;4.55;;;;;;;11.49;53.38;100356.75;4807183;29;20410;-83
2023/12/27 13:26:35;;;;;;;10.02;5.50;;;;;;;11.50;54.19;100357.56;4806945;29;20509;-79
2023/12/27 13:29:20;;;;;;;15.55;6.35;;;;;;;11.55;53.62;100361.25;4806839;29;20054;-80
2023/12/27 13:32:07;;;;;;;12.88;6.15;;;;;;;11.49;54.20;100354.09;4806539;29;20406;-81
2023/12/27 13:34:57;;;;;;;13.07;6.40;;;;;;;11.41;54.13;100358.84;4806674;29;20058;-85
2023/12/27 13:37:42;;;;;;;15.73;7.57;;;;;;;11.39;53.81;100356.38;4806712;29;20054;-82
2023/12/27 13:40:27;;;;;;;13.07;7.45;;;;;;;11.40;53.22;100365.97;4799611;29;20062;-84
2023/12/27 14:05:42;;;;;;;13.45;7.20;;;;;;;10.95;54.18;100347.19;5090306;27;20856;-85
2023/12/27 14:08:29;;;;;;;13.18;7.25;;;;;;;10.80;54.35;100350.03;5095824;27;20055;-85
2023/12/27 14:11:16;;;;;;;14.02;5.90;;;;;;;10.71;54.98;100361.06;5081488;28;20071;-86
2023/12/27 14:14:03;;;;;;;19.75;9.68;;;;;;;10.63;55.74;100354.94;5066933;28;20074;-83
2023/12/27 14:16:49;;;;;;;25.25;13.57;;;;;;;10.51;55.80;100345.91;5080485;28;20394;-87
2023/12/27 14:19:35;;;;;;;22.13;10.50;;;;;;;10.42;56.70;100352.44;5066655;28;20149;-85
2023/12/27 14:22:20;;;;;;;19.70;10.38;;;;;;;10.44;56.73;100344.28;5067505;28;20059;-85
2023/12/27 14:25:08;;;;;;;20.25;8.27;;;;;;;10.47;55.39;100354.50;5066862;28;20059;-84
2023/12/27 14:27:54;;;;;;;21.08;10.00;;;;;;;10.46;55.76;100358.16;5067383;28;20062;-84
2023/12/27 14:30:40;;;;;;;18.30;9.27;;;;;;;10.42;55.91;100358.56;5066222;28;20400;-85
2023/12/27 14:33:26;;;;;;;18.13;9.73;;;;;;;10.27;56.73;100360.56;5066591;28;20075;-81
2023/12/27 14:36:13;;;;;;;19.42;11.27;;;;;;;10.08;57.34;100362.09;5067058;28;20071;-82
2023/12/27 14:39:05;;;;;;;32.47;14.15;;;;;;;9.91;58.40;100355.50;5064723;28;20401;-83
2023/12/27 14:41:51;;;;;;;33.45;16.85;;;;;;;9.81;58.59;100358.53;5068372;28;20066;-86
2023/12/27 14:44:37;;;;;;;44.78;20.80;;;;;;;9.66;59.53;100365.81;5075397;28;20047;-84
2023/12/27 14:47:23;;;;;;;313.58;121.50;;;;;;;9.57;60.17;100361.66;5061013;28;20059;-83
2023/12/27 14:50:09;;;;;;;106.72;44.22;;;;;;;9.35;61.37;100352.94;5075089;28;20400;-84
2023/12/27 14:52:56;;;;;;;96.38;42.50;;;;;;;9.17;61.85;100359.56;5071647;28;20079;-84
2023/12/27 14:55:42;;;;;;;116.22;60.75;;;;;;;8.97;63.31;100354.09;5047252;28;20051;-84
2023/12/27 14:58:28;;;;;;;96.45;45.67;;;;;;;8.77;64.29;100359.25;5074848;28;20055;-83
2023/12/27 15:01:15;;;;;;;363.10;197.32;;;;;;;8.58;65.70;100349.25;5047171;28;20064;-81
2023/12/27 15:04:06;;;;;;;158.70;76.82;;;;;;;8.40;65.92;100346.22;5044889;28;20045;-82
2023/12/27 15:06:56;;;;;;;166.52;94.07;;;;;;;8.26;66.90;100343.41;5074343;28;20063;-84
2023/12/27 15:09:42;;;;;;;138.25;77.00;;;;;;;8.15;68.16;100341.25;5074973;28;20401;-85
2023/12/27 15:12:27;;;;;;;201.02;94.82;;;;;;;7.98;68.20;100343.28;5040992;28;20441;-84
2023/12/27 15:15:16;;;;;;;119.32;56.20;;;;;;;7.81;69.45;100345.31;5067207;28;20507;-84
2023/12/27 15:18:01;;;;;;;192.00;90.88;;;;;;;7.62;70.75;100343.22;5052284;28;20059;-84
2023/12/27 15:20:48;;;;;;;117.20;55.53;;;;;;;7.46;71.48;100348.69;5053549;28;20058;-86
2023/12/27 15:23:33;;;;;;;109.03;50.20;;;;;;;7.25;71.34;100358.16;5051904;28;20059;-85
2023/12/27 15:26:20;;;;;;;96.88;45.78;;;;;;;7.04;72.69;100353.56;5054537;28;20393;-83
2023/12/27 15:29:07;;;;;;;97.80;48.00;;;;;;;6.91;73.25;100356.81;5057708;28;20055;-84
2023/12/27 15:31:53;;;;;;;261.00;124.25;;;;;;;6.86;73.91;100350.41;5072667;28;20063;-87
2023/12/27 15:34:41;;;;;;;137.23;66.05;;;;;;;6.72;74.51;100362.59;5073841;28;20044;-86
2023/12/27 15:37:27;;;;;;;141.85;71.90;;;;;;;6.59;74.07;100367.63;5068594;28;20161;-85
2023/12/27 15:40:14;;;;;;;136.40;56.55;;;;;;;6.44;75.47;100370.19;5071866;28;20074;-83
2023/12/27 15:43:00;;;;;;;80.30;41.78;;;;;;;6.52;75.33;100371.94;5069972;28;20503;-86
2023/12/27 15:45:48;;;;;;;135.70;54.70;;;;;;;6.37;76.02;100379.81;5065722;28;20066;-82
2023/12/27 15:48:35;;;;;;;119.35;54.15;;;;;;;6.37;76.46;100382.47;5049896;28;20469;-81
2023/12/27 15:51:32;;;;;;;135.73;64.35;;;;;;;6.43;75.73;100384.41;5075985;28;20401;-87
2023/12/27 15:54:18;;;;;;;188.63;103.38;;;;;;;6.27;76.11;100393.25;5062152;28;20481;-83
2023/12/27 15:57:06;;;;;;;222.15;115.38;;;;;;;6.13;76.66;100388.69;5051183;28;20048;-90
2023/12/27 15:59:52;;;;;;;147.48;72.72;;;;;;;6.01;77.37;100390.88;5062755;28;20386;-87
2023/12/27 16:02:39;;;;;;;186.98;96.38;;;;;;;5.87;77.21;100383.66;5048518;28;20067;-85
2023/12/27 16:05:26;;;;;;;181.18;96.20;;;;;;;5.75;77.91;100378.72;5040342;28;20063;-87
2023/12/27 16:08:12;;;;;;;210.25;118.35;;;;;;;5.61;77.95;100386.50;5032475;28;20048;-84
2023/12/27 16:10:59;;;;;;;213.50;114.10;;;;;;;5.46;78.52;100389.03;5059964;28;20044;-85
2023/12/27 16:13:47;;;;;;;200.20;105.10;;;;;;;5.33;79.20;100395.66;5060074;28;20382;-83
2023/12/27 16:16:43;;;;;;;179.43;94.65;;;;;;;5.25;79.57;100389.56;5059807;28;20052;-85
2023/12/27 16:19:33;;;;;;;136.60;72.10;;;;;;;5.14;80.58;100380.19;5075000;28;20074;-85
2023/12/27 16:31:43;;;;;;;;;;;;;;;;;;;;;
2023/12/27 16:35:15;;;;;;;222.70;100.90;;;;;;;4.79;81.46;100370.78;5049836;28;20388;-85
2023/12/27 16:38:34;;;;;;;100.75;46.42;;;;;;;4.73;82.39;100377.56;5048054;28;20048;-84
2023/12/27 16:42:06;;;;;;;110.15;49.22;;;;;;;4.59;82.42;100389.53;5073387;28;20044;-85
2023/12/27 16:44:57;;;;;;;124.82;60.60;;;;;;;4.52;82.83;100393.81;5047214;28;20052;-85
2023/12/27 16:47:44;;;;;;;145.77;66.15;;;;;;;4.47;82.40;100393.47;5058793;28;20381;-85
2023/12/27 16:50:30;;;;;;;150.60;69.10;;;;;;;4.39;83.08;100404.81;5030219;28;20076;-85
2023/12/27 16:53:17;;;;;;;169.32;82.88;;;;;;;4.32;83.24;100398.53;5058710;28;20067;-87
2023/12/27 16:56:15;;;;;;;228.93;111.25;;;;;;;4.25;83.40;100392.25;5037974;28;20397;-86
2023/12/27 16:59:02;;;;;;;212.70;109.45;;;;;;;4.28;83.82;100396.38;5031208;28;20474;-84
2023/12/27 17:02:10;;;;;;;207.05;102.80;;;;;;;4.28;83.73;100404.28;5048816;28;20474;-86
2023/12/27 17:04:59;;;;;;;178.73;90.55;;;;;;;4.22;84.06;100404.91;5037941;28;20462;-83
2023/12/27 17:07:50;;;;;;;183.80;97.03;;;;;;;4.11;84.46;100398.97;5058549;28;20044;-84
2023/12/27 17:10:38;;;;;;;197.00;99.85;;;;;;;4.01;84.89;100400.91;5071906;28;20052;-86
2023/12/27 17:13:35;;;;;;;204.82;106.07;;;;;;;3.93;84.35;100406.13;5057824;28;20401;-85
2023/12/27 17:16:34;;;;;;;186.02;95.75;;;;;;;3.77;84.70;100387.66;5059139;28;20469;-83
2023/12/27 17:19:25;;;;;;;179.45;89.80;;;;;;;3.72;85.29;100403.88;5044496;28;20052;-85
2023/12/27 17:22:12;;;;;;;149.05;76.78;;;;;;;3.64;85.49;100401.22;5058864;28;20415;-83
2023/12/27 17:25:00;;;;;;;188.70;99.90;;;;;;;3.58;85.62;100394.78;5046000;28;20432;-82
2023/12/27 17:27:46;;;;;;;181.65;96.00;;;;;;;3.50;85.68;100409.66;5051864;28;20102;-85
2023/12/27 17:30:32;;;;;;;184.23;95.95;;;;;;;3.44;85.91;100400.59;5071123;28;20056;-85
2023/12/27 17:33:18;;;;;;;198.13;103.47;;;;;;;3.32;85.95;100391.31;5052016;28;20053;-84
2023/12/27 17:36:06;;;;;;;217.48;110.43;;;;;;;3.27;86.44;100388.34;5036244;28;20045;-87
2023/12/27 17:38:54;;;;;;;167.50;84.78;;;;;;;3.38;86.66;100406.47;5035207;28;20052;-83
2023/12/27 17:42:16;;;;;;;;;;;;;;;;;;;;;
2023/12/27 17:45:13;;;;;;;445.25;255.88;;;;;;;3.32;87.63;100397.41;5083345;27;20044;-83
2023/12/27 17:48:03;;;;;;;402.75;225.88;;;;;;;3.54;88.34;100409.22;5054545;28;20040;-83
2023/12/27 17:54:14;;;;;;;458.83;239.57;;;;;;;3.42;87.56;100406.00;5069931;28;20052;-83
2023/12/27 17:57:05;;;;;;;435.45;229.40;;;;;;;3.30;87.47;100398.53;5052404;28;20044;-84
2023/12/27 18:03:45;;;;;;;330.52;172.18;;;;;;;2.94;87.66;100401.19;5026954;28;20429;-84
2023/12/27 18:06:44;;;;;;;319.35;166.70;;;;;;;2.84;87.60;100408.34;5043283;28;20048;-82
2023/12/27 18:09:42;;;;;;;291.83;161.50;;;;;;;2.73;87.49;100406.78;5038945;28;20486;-81
2023/12/27 18:13:22;;;;;;;243.57;135.98;;;;;;;2.69;87.98;100415.91;5031171;28;20075;-84
2023/12/27 18:16:46;;;;;;;;;;;;;;;;;;;;;
2023/12/27 18:20:38;;;;;;;216.82;116.03;;;;;;;2.72;89.23;100429.56;5055519;28;20044;-83
2023/12/27 18:29:07;;;;;;;220.50;116.68;;;;;;;2.62;88.89;100422.72;5059888;28;20392;-85
2023/12/27 18:45:02;;;;;;;260.33;121.93;;;;;;;2.42;89.61;100411.56;5057628;28;20040;-84
2023/12/27 18:48:17;;;;;;;351.52;178.10;;;;;;;2.33;89.26;100402.75;5058806;28;20052;-85
2023/12/27 18:51:54;;;;;;;;;;;;;;;;;;;;;
2023/12/27 18:55:00;;;;;;;204.38;106.75;;;;;;;2.18;89.79;100410.28;5070494;28;20464;-83
2023/12/27 18:57:46;;;;;;;226.65;109.85;;;;;;;2.08;89.88;100407.72;5067427;28;20048;-84
2023/12/27 19:00:36;;;;;;;260.88;118.68;;;;;;;2.12;89.90;100405.63;5063487;28;20485;-84
2023/12/27 19:03:23;;;;;;;224.65;114.70;;;;;;;2.04;89.95;100418.66;5050160;28;20420;-84
2023/12/27 19:06:27;;;;;;;300.20;153.68;;;;;;;2.02;89.98;100416.16;5051718;28;20484;-86
2023/12/27 19:22:34;;;;;;;303.35;167.45;;;;;;;1.71;89.90;100417.41;5042811;28;20045;-86
2023/12/27 19:33:40;;;;;;;178.13;98.90;;;;;;;1.45;90.82;100425.06;5067277;28;20465;-84
2023/12/27 19:37:06;;;;;;;;;;;;;;;;;;;;;
2023/12/27 19:41:00;;;;;;;;;;;;;;;;;;;;;
2023/12/27 19:44:40;;;;;;;113.38;63.40;;;;;;;1.44;90.62;100426.84;5055933;28;20361;-83
2023/12/27 19:47:54;;;;;;;138.27;70.28;;;;;;;1.36;90.83;100424.94;5054468;28;20376;-84
2023/12/27 19:51:09;;;;;;;169.13;92.72;;;;;;;1.31;90.80;100431.56;5057660;28;20488;-85
2023/12/27 19:54:27;;;;;;;;;;;;;;;;;;;;;
2023/12/27 19:58:14;;;;;;;165.88;93.30;;;;;;;1.24;91.63;100425.22;5066432;28;20054;-84
2023/12/27 20:05:54;;;;;;;186.88;99.30;;;;;;;1.21;91.63;100441.22;5006401;28;20049;-84
2023/12/27 20:09:48;;;;;;;;;;;;;;;;;;;;;
2023/12/27 20:13:11;;;;;;;293.75;153.40;;;;;;;1.20;90.64;100439.56;5077756;28;20044;-84
2023/12/27 20:16:36;;;;;;;233.60;122.88;;;;;;;1.13;90.76;100444.56;5081330;28;20420;-88